sensor_id;sensor_type;location;lat;lon;timestamp;pressure;altitude;pressure_sealevel;temperature;humidity
43934;BME280;59081;42.706;23.306;2023-04-24T00:01:37;94890.47;;;10.63;62.23
43934;BME280;59081;42.706;23.306;2023-04-24T00:04:05;94931.69;;;11.01;61.49
43934;BME280;59081;42.706;23.306;2023-04-24T00:06:31;94827.19;;;10.25;62.81
43934;BME280;59081;42.706;23.306;2023-04-24T00:09:03;94858.38;;;10.34;62.24
43934;BME280;59081;42.706;23.306;2023-04-24T00:11:29;94928.59;;;10.99;61.59
43934;BME280;59081;42.706;23.306;2023-04-24T00:13:55;94874.81;;;10.60;61.59
43934;BME280;59081;42.706;23.306;2023-04-24T00:16:21;94872.59;;;10.67;60.92
43934;BME280;59081;42.706;23.306;2023-04-24T00:18:46;94863.91;;;10.69;60.62
43934;BME280;59081;42.706;23.306;2023-04-24T00:21:13;94903.41;;;10.88;60.10
43934;BME280;59081;42.706;23.306;2023-04-24T00:23:39;94986.00;;;11.47;60.17
43934;BME280;59081;42.706;23.306;2023-04-24T00:26:04;94908.47;;;10.89;59.96
43934;BME280;59081;42.706;23.306;2023-04-24T00:28:30;94905.91;;;10.95;60.36
43934;BME280;59081;42.706;23.306;2023-04-24T00:30:55;94946.19;;;11.14;60.53
43934;BME280;59081;42.706;23.306;2023-04-24T00:33:21;94878.63;;;10.75;59.46
43934;BME280;59081;42.706;23.306;2023-04-24T00:35:46;94954.06;;;11.37;59.33
43934;BME280;59081;42.706;23.306;2023-04-24T00:38:12;94909.97;;;11.03;59.13
43934;BME280;59081;42.706;23.306;2023-04-24T00:40:37;94889.47;;;10.69;59.55
43934;BME280;59081;42.706;23.306;2023-04-24T00:43:03;94887.09;;;10.80;59.64
43934;BME280;59081;42.706;23.306;2023-04-24T00:45:28;94966.97;;;11.40;60.08
43934;BME280;59081;42.706;23.306;2023-04-24T00:47:56;94933.63;;;11.13;60.11
43934;BME280;59081;42.706;23.306;2023-04-24T00:50:23;94923.81;;;11.12;59.68
43934;BME280;59081;42.706;23.306;2023-04-24T00:52:49;94941.84;;;11.26;59.52
43934;BME280;59081;42.706;23.306;2023-04-24T00:55:16;94882.94;;;10.76;59.15
43934;BME280;59081;42.706;23.306;2023-04-24T00:57:41;94954.56;;;11.23;60.32
43934;BME280;59081;42.706;23.306;2023-04-24T01:00:07;94983.78;;;11.55;60.16
43934;BME280;59081;42.706;23.306;2023-04-24T01:02:36;94874.53;;;10.79;60.57
43934;BME280;59081;42.706;23.306;2023-04-24T01:05:06;94964.06;;;11.44;59.60
43934;BME280;59081;42.706;23.306;2023-04-24T01:07:32;94926.41;;;11.28;59.16
43934;BME280;59081;42.706;23.306;2023-04-24T01:09:58;94868.22;;;10.92;60.56
43934;BME280;59081;42.706;23.306;2023-04-24T01:12:24;94924.19;;;11.36;61.02
43934;BME280;59081;42.706;23.306;2023-04-24T01:14:49;94899.75;;;11.25;60.80
43934;BME280;59081;42.706;23.306;2023-04-24T01:17:15;94896.91;;;11.16;61.98
43934;BME280;59081;42.706;23.306;2023-04-24T01:19:40;94877.13;;;10.96;63.45
43934;BME280;59081;42.706;23.306;2023-04-24T01:22:15;94895.22;;;10.97;63.12
43934;BME280;59081;42.706;23.306;2023-04-24T01:24:42;94827.53;;;10.14;63.54
43934;BME280;59081;42.706;23.306;2023-04-24T01:27:09;94877.25;;;10.58;63.28
43934;BME280;59081;42.706;23.306;2023-04-24T01:29:35;94864.81;;;10.53;63.95
43934;BME280;59081;42.706;23.306;2023-04-24T01:32:02;94807.81;;;10.16;65.12
43934;BME280;59081;42.706;23.306;2023-04-24T01:34:28;94951.00;;;11.01;65.22
43934;BME280;59081;42.706;23.306;2023-04-24T01:36:54;94948.06;;;10.82;64.97
43934;BME280;59081;42.706;23.306;2023-04-24T01:39:19;94876.19;;;10.42;64.61
43934;BME280;59081;42.706;23.306;2023-04-24T01:41:46;94873.75;;;10.44;65.17
43934;BME280;59081;42.706;23.306;2023-04-24T01:44:11;94910.16;;;10.74;65.10
43934;BME280;59081;42.706;23.306;2023-04-24T01:46:37;94814.53;;;10.15;64.54
43934;BME280;59081;42.706;23.306;2023-04-24T01:49:03;94887.59;;;10.66;64.62
43934;BME280;59081;42.706;23.306;2023-04-24T01:51:29;94844.34;;;10.41;65.60
43934;BME280;59081;42.706;23.306;2023-04-24T01:53:55;94900.47;;;10.57;65.11
43934;BME280;59081;42.706;23.306;2023-04-24T01:56:21;94894.47;;;10.49;65.80
43934;BME280;59081;42.706;23.306;2023-04-24T01:58:48;94831.84;;;10.02;66.42
43934;BME280;59081;42.706;23.306;2023-04-24T02:01:18;94883.22;;;10.43;66.09
43934;BME280;59081;42.706;23.306;2023-04-24T02:03:44;94842.84;;;10.28;65.46
43934;BME280;59081;42.706;23.306;2023-04-24T02:06:09;94908.09;;;10.65;65.96
43934;BME280;59081;42.706;23.306;2023-04-24T02:08:35;94819.50;;;10.07;66.18
43934;BME280;59081;42.706;23.306;2023-04-24T02:11:00;94833.28;;;10.20;66.01
43934;BME280;59081;42.706;23.306;2023-04-24T02:13:27;94884.25;;;10.37;66.12
43934;BME280;59081;42.706;23.306;2023-04-24T02:15:53;94831.59;;;10.09;65.80
43934;BME280;59081;42.706;23.306;2023-04-24T02:18:18;94817.41;;;9.98;65.61
43934;BME280;59081;42.706;23.306;2023-04-24T02:20:44;94871.53;;;10.39;65.80
43934;BME280;59081;42.706;23.306;2023-04-24T02:23:09;94804.53;;;9.95;66.31
43934;BME280;59081;42.706;23.306;2023-04-24T02:25:35;94841.72;;;10.12;66.02
43934;BME280;59081;42.706;23.306;2023-04-24T02:28:00;94843.16;;;10.17;66.05
43934;BME280;59081;42.706;23.306;2023-04-24T02:30:25;94815.19;;;10.06;64.80
43934;BME280;59081;42.706;23.306;2023-04-24T02:32:51;94866.19;;;10.36;64.72
43934;BME280;59081;42.706;23.306;2023-04-24T02:35:16;94783.66;;;9.85;63.52
43934;BME280;59081;42.706;23.306;2023-04-24T02:37:42;94807.59;;;10.10;63.73
43934;BME280;59081;42.706;23.306;2023-04-24T02:40:08;94857.22;;;10.44;64.10
43934;BME280;59081;42.706;23.306;2023-04-24T02:42:34;94798.72;;;9.93;65.04
43934;BME280;59081;42.706;23.306;2023-04-24T02:45:00;94791.56;;;9.96;65.30
43934;BME280;59081;42.706;23.306;2023-04-24T02:47:25;94845.50;;;10.19;65.57
43934;BME280;59081;42.706;23.306;2023-04-24T02:49:50;94814.56;;;9.89;65.58
43934;BME280;59081;42.706;23.306;2023-04-24T02:52:16;94816.44;;;9.92;65.43
43934;BME280;59081;42.706;23.306;2023-04-24T02:54:42;94832.16;;;10.04;64.84
43934;BME280;59081;42.706;23.306;2023-04-24T02:57:08;94779.38;;;9.59;65.30
43934;BME280;59081;42.706;23.306;2023-04-24T02:59:33;94830.41;;;9.85;65.04
43934;BME280;59081;42.706;23.306;2023-04-24T03:01:59;94830.28;;;9.89;65.33
43934;BME280;59081;42.706;23.306;2023-04-24T03:04:24;94873.53;;;10.13;65.68
43934;BME280;59081;42.706;23.306;2023-04-24T03:06:50;94806.41;;;9.73;66.10
43934;BME280;59081;42.706;23.306;2023-04-24T03:09:18;94841.72;;;9.87;66.34
43934;BME280;59081;42.706;23.306;2023-04-24T03:11:43;94858.25;;;10.00;67.22
43934;BME280;59081;42.706;23.306;2023-04-24T03:14:09;94842.41;;;9.91;67.84
43934;BME280;59081;42.706;23.306;2023-04-24T03:16:53;94914.84;;;10.39;68.46
43934;BME280;59081;42.706;23.306;2023-04-24T03:19:18;94926.75;;;10.36;68.46
43934;BME280;59081;42.706;23.306;2023-04-24T03:21:44;94924.66;;;10.27;68.46
43934;BME280;59081;42.706;23.306;2023-04-24T03:24:10;94877.97;;;9.86;69.59
43934;BME280;59081;42.706;23.306;2023-04-24T03:26:35;94801.13;;;9.28;70.42
43934;BME280;59081;42.706;23.306;2023-04-24T03:29:01;94853.84;;;9.64;70.33
43934;BME280;59081;42.706;23.306;2023-04-24T03:31:26;94844.72;;;9.67;70.36
43934;BME280;59081;42.706;23.306;2023-04-24T03:33:52;94763.41;;;9.16;70.57
43934;BME280;59081;42.706;23.306;2023-04-24T03:36:17;94899.63;;;9.96;70.09
43934;BME280;59081;42.706;23.306;2023-04-24T03:38:44;94889.75;;;9.86;70.39
43934;BME280;59081;42.706;23.306;2023-04-24T03:41:10;94879.16;;;9.97;70.05
43934;BME280;59081;42.706;23.306;2023-04-24T03:43:36;94833.59;;;9.71;70.11
43934;BME280;59081;42.706;23.306;2023-04-24T03:46:02;94797.94;;;9.55;70.21
43934;BME280;59081;42.706;23.306;2023-04-24T03:48:28;94854.84;;;9.96;69.68
43934;BME280;59081;42.706;23.306;2023-04-24T03:50:53;94872.78;;;10.13;69.43
43934;BME280;59081;42.706;23.306;2023-04-24T03:53:19;94867.72;;;10.11;69.05
43934;BME280;59081;42.706;23.306;2023-04-24T03:55:45;94791.25;;;9.56;69.24
43934;BME280;59081;42.706;23.306;2023-04-24T03:58:10;94872.31;;;9.89;70.54
43934;BME280;59081;42.706;23.306;2023-04-24T04:00:36;94818.03;;;9.26;71.52
43934;BME280;59081;42.706;23.306;2023-04-24T04:03:03;94836.44;;;9.55;71.16
43934;BME280;59081;42.706;23.306;2023-04-24T04:05:29;94915.59;;;10.01;71.57
43934;BME280;59081;42.706;23.306;2023-04-24T04:07:54;94773.19;;;9.17;70.83
43934;BME280;59081;42.706;23.306;2023-04-24T04:10:20;94809.69;;;9.30;70.52
43934;BME280;59081;42.706;23.306;2023-04-24T04:12:45;94880.72;;;9.86;70.42
43934;BME280;59081;42.706;23.306;2023-04-24T04:15:11;94864.06;;;9.89;73.03
43934;BME280;59081;42.706;23.306;2023-04-24T04:17:36;94845.38;;;9.84;69.27
43934;BME280;59081;42.706;23.306;2023-04-24T04:20:03;94828.53;;;9.57;68.67
43934;BME280;59081;42.706;23.306;2023-04-24T04:22:33;94910.00;;;10.18;69.66
43934;BME280;59081;42.706;23.306;2023-04-24T04:24:59;94833.91;;;9.60;68.38
43934;BME280;59081;42.706;23.306;2023-04-24T04:27:24;94833.38;;;9.78;65.50
43934;BME280;59081;42.706;23.306;2023-04-24T04:29:50;94792.44;;;9.29;65.49
43934;BME280;59081;42.706;23.306;2023-04-24T04:32:16;94834.63;;;9.23;65.20
43934;BME280;59081;42.706;23.306;2023-04-24T04:34:41;94855.91;;;9.48;64.70
43934;BME280;59081;42.706;23.306;2023-04-24T04:37:08;94930.09;;;9.89;64.92
43934;BME280;59081;42.706;23.306;2023-04-24T04:39:34;94820.44;;;9.12;65.57
43934;BME280;59081;42.706;23.306;2023-04-24T04:41:59;94929.34;;;10.01;64.33
43934;BME280;59081;42.706;23.306;2023-04-24T04:44:27;94858.25;;;9.62;64.40
43934;BME280;59081;42.706;23.306;2023-04-24T04:46:53;94889.69;;;9.73;65.94
43934;BME280;59081;42.706;23.306;2023-04-24T04:49:31;94822.88;;;9.22;64.81
43934;BME280;59081;42.706;23.306;2023-04-24T04:51:56;94844.91;;;9.48;64.45
43934;BME280;59081;42.706;23.306;2023-04-24T04:54:22;94904.94;;;10.03;63.55
43934;BME280;59081;42.706;23.306;2023-04-24T04:56:50;94850.09;;;9.96;75.17
43934;BME280;59081;42.706;23.306;2023-04-24T04:59:15;94850.56;;;11.24;96.36
43934;BME280;59081;42.706;23.306;2023-04-24T05:01:42;94854.38;;;11.26;68.83
43934;BME280;59081;42.706;23.306;2023-04-24T05:04:07;94936.34;;;11.47;62.24
43934;BME280;59081;42.706;23.306;2023-04-24T05:06:33;94873.81;;;11.01;63.09
43934;BME280;59081;42.706;23.306;2023-04-24T05:08:58;94953.44;;;11.55;62.97
43934;BME280;59081;42.706;23.306;2023-04-24T05:11:24;94850.72;;;10.86;62.11
43934;BME280;59081;42.706;23.306;2023-04-24T05:13:50;94871.75;;;10.92;61.93
43934;BME280;59081;42.706;23.306;2023-04-24T05:16:15;94845.72;;;10.71;62.94
43934;BME280;59081;42.706;23.306;2023-04-24T05:18:41;94886.94;;;10.97;63.01
43934;BME280;59081;42.706;23.306;2023-04-24T05:21:06;94942.47;;;11.42;63.82
43934;BME280;59081;42.706;23.306;2023-04-24T05:23:32;94859.88;;;10.82;63.81
43934;BME280;59081;42.706;23.306;2023-04-24T05:25:57;94871.06;;;11.01;65.46
43934;BME280;59081;42.706;23.306;2023-04-24T05:28:22;94860.88;;;10.76;64.65
43934;BME280;59081;42.706;23.306;2023-04-24T05:30:48;94952.56;;;11.45;64.92
43934;BME280;59081;42.706;23.306;2023-04-24T05:33:13;94806.50;;;10.33;64.22
43934;BME280;59081;42.706;23.306;2023-04-24T05:35:40;94824.00;;;10.39;65.10
43934;BME280;59081;42.706;23.306;2023-04-24T05:38:11;94894.69;;;10.55;64.00
43934;BME280;59081;42.706;23.306;2023-04-24T05:40:36;94871.25;;;10.25;64.74
43934;BME280;59081;42.706;23.306;2023-04-24T05:43:02;94859.47;;;10.24;64.63
43934;BME280;59081;42.706;23.306;2023-04-24T05:45:27;94955.06;;;10.96;64.23
43934;BME280;59081;42.706;23.306;2023-04-24T05:47:53;94844.69;;;10.18;65.18
43934;BME280;59081;42.706;23.306;2023-04-24T05:50:19;94881.38;;;10.28;63.82
43934;BME280;59081;42.706;23.306;2023-04-24T05:52:45;94927.28;;;10.43;64.53
43934;BME280;59081;42.706;23.306;2023-04-24T05:55:10;94891.84;;;10.20;64.19
43934;BME280;59081;42.706;23.306;2023-04-24T05:57:36;94965.25;;;10.87;64.50
43934;BME280;59081;42.706;23.306;2023-04-24T06:00:01;94864.63;;;10.35;63.77
43934;BME280;59081;42.706;23.306;2023-04-24T06:02:27;94858.88;;;10.42;63.80
43934;BME280;59081;42.706;23.306;2023-04-24T06:04:54;94819.13;;;10.43;61.97
43934;BME280;59081;42.706;23.306;2023-04-24T06:07:20;94864.94;;;10.84;61.67
43934;BME280;59081;42.706;23.306;2023-04-24T06:09:46;94854.13;;;10.90;61.76
43934;BME280;59081;42.706;23.306;2023-04-24T06:12:12;94790.75;;;10.68;61.02
43934;BME280;59081;42.706;23.306;2023-04-24T06:14:37;94916.59;;;11.71;60.04
43934;BME280;59081;42.706;23.306;2023-04-24T06:17:03;94774.88;;;10.72;60.02
43934;BME280;59081;42.706;23.306;2023-04-24T06:19:28;94784.44;;;11.11;59.82
43934;BME280;59081;42.706;23.306;2023-04-24T06:21:54;94842.66;;;11.88;72.45
43934;BME280;59081;42.706;23.306;2023-04-24T06:24:19;94895.22;;;12.55;60.52
43934;BME280;59081;42.706;23.306;2023-04-24T06:26:45;94948.13;;;12.94;60.87
43934;BME280;59081;42.706;23.306;2023-04-24T06:29:11;94889.38;;;12.53;58.63
43934;BME280;59081;42.706;23.306;2023-04-24T06:31:36;94852.19;;;12.27;58.72
43934;BME280;59081;42.706;23.306;2023-04-24T06:34:03;94872.03;;;12.52;58.41
43934;BME280;59081;42.706;23.306;2023-04-24T06:36:28;94874.34;;;12.54;57.54
43934;BME280;59081;42.706;23.306;2023-04-24T06:38:54;94876.16;;;12.48;58.65
43934;BME280;59081;42.706;23.306;2023-04-24T06:41:20;94899.50;;;12.56;58.97
43934;BME280;59081;42.706;23.306;2023-04-24T06:43:45;94895.44;;;12.88;58.21
43934;BME280;59081;42.706;23.306;2023-04-24T06:46:11;94850.13;;;12.76;57.80
43934;BME280;59081;42.706;23.306;2023-04-24T06:48:37;94889.63;;;12.95;58.23
43934;BME280;59081;42.706;23.306;2023-04-24T06:51:02;94927.31;;;13.29;58.61
43934;BME280;59081;42.706;23.306;2023-04-24T06:53:28;94849.84;;;12.93;58.29
43934;BME280;59081;42.706;23.306;2023-04-24T06:55:53;94943.09;;;13.83;57.07
43934;BME280;59081;42.706;23.306;2023-04-24T06:58:20;94908.06;;;13.07;58.29
43934;BME280;59081;42.706;23.306;2023-04-24T07:00:45;94887.03;;;13.19;57.45
43934;BME280;59081;42.706;23.306;2023-04-24T07:03:10;94819.69;;;12.67;57.48
43934;BME280;59081;42.706;23.306;2023-04-24T07:05:36;94850.88;;;12.68;58.92
43934;BME280;59081;42.706;23.306;2023-04-24T07:08:03;94870.38;;;12.73;59.22
43934;BME280;59081;42.706;23.306;2023-04-24T07:10:29;94846.59;;;12.85;58.62
43934;BME280;59081;42.706;23.306;2023-04-24T07:12:55;94913.00;;;13.49;57.34
43934;BME280;59081;42.706;23.306;2023-04-24T07:15:26;94880.28;;;13.29;58.29
43934;BME280;59081;42.706;23.306;2023-04-24T07:17:52;94825.41;;;13.18;56.26
43934;BME280;59081;42.706;23.306;2023-04-24T07:20:17;94822.28;;;13.53;56.69
43934;BME280;59081;42.706;23.306;2023-04-24T07:22:43;94843.34;;;13.59;55.58
43934;BME280;59081;42.706;23.306;2023-04-24T07:25:08;94895.59;;;13.76;56.81
43934;BME280;59081;42.706;23.306;2023-04-24T07:27:34;94936.28;;;14.03;56.57
43934;BME280;59081;42.706;23.306;2023-04-24T07:30:01;94792.84;;;12.59;57.80
43934;BME280;59081;42.706;23.306;2023-04-24T07:32:27;94910.38;;;13.54;57.30
43934;BME280;59081;42.706;23.306;2023-04-24T07:34:52;94752.94;;;12.78;57.31
43934;BME280;59081;42.706;23.306;2023-04-24T07:37:17;94847.78;;;13.66;56.29
43934;BME280;59081;42.706;23.306;2023-04-24T07:39:43;94879.19;;;14.14;55.31
43934;BME280;59081;42.706;23.306;2023-04-24T07:42:08;94836.22;;;14.19;54.38
43934;BME280;59081;42.706;23.306;2023-04-24T07:44:34;94856.28;;;14.38;55.01
43934;BME280;59081;42.706;23.306;2023-04-24T07:47:01;94836.28;;;14.43;55.14
43934;BME280;59081;42.706;23.306;2023-04-24T07:49:26;94834.41;;;14.49;54.24
43934;BME280;59081;42.706;23.306;2023-04-24T07:51:53;94814.88;;;14.67;53.38
43934;BME280;59081;42.706;23.306;2023-04-24T07:54:18;94894.84;;;15.31;52.21
43934;BME280;59081;42.706;23.306;2023-04-24T07:56:44;94841.75;;;15.00;53.12
43934;BME280;59081;42.706;23.306;2023-04-24T07:59:10;94796.88;;;14.86;52.37
43934;BME280;59081;42.706;23.306;2023-04-24T08:01:36;94896.75;;;15.63;51.40
43934;BME280;59081;42.706;23.306;2023-04-24T08:04:01;94778.28;;;15.16;51.32
43934;BME280;59081;42.706;23.306;2023-04-24T08:06:27;94920.81;;;16.40;49.91
43934;BME280;59081;42.706;23.306;2023-04-24T08:08:56;94866.28;;;16.13;49.84
43934;BME280;59081;42.706;23.306;2023-04-24T08:11:21;94817.75;;;15.94;50.28
43934;BME280;59081;42.706;23.306;2023-04-24T08:13:47;94861.63;;;16.05;49.75
43934;BME280;59081;42.706;23.306;2023-04-24T08:16:12;94816.97;;;15.93;49.32
43934;BME280;59081;42.706;23.306;2023-04-24T08:18:38;94815.81;;;16.00;48.38
43934;BME280;59081;42.706;23.306;2023-04-24T08:21:04;94824.53;;;16.08;49.30
43934;BME280;59081;42.706;23.306;2023-04-24T08:23:29;94818.50;;;15.94;49.73
43934;BME280;59081;42.706;23.306;2023-04-24T08:25:55;94836.97;;;16.27;49.17
43934;BME280;59081;42.706;23.306;2023-04-24T08:28:21;94888.97;;;16.91;47.76
43934;BME280;59081;42.706;23.306;2023-04-24T08:30:47;94826.13;;;16.64;48.17
43934;BME280;59081;42.706;23.306;2023-04-24T08:33:14;94875.69;;;17.21;48.51
43934;BME280;59081;42.706;23.306;2023-04-24T08:35:39;94789.41;;;16.80;46.95
43934;BME280;59081;42.706;23.306;2023-04-24T08:38:05;94769.53;;;16.87;46.50
43934;BME280;59081;42.706;23.306;2023-04-24T08:40:33;94844.66;;;17.54;46.21
43934;BME280;59081;42.706;23.306;2023-04-24T08:43:00;94842.34;;;17.72;46.44
43934;BME280;59081;42.706;23.306;2023-04-24T08:45:26;94783.41;;;17.80;44.97
43934;BME280;59081;42.706;23.306;2023-04-24T08:47:52;94799.78;;;17.46;45.59
43934;BME280;59081;42.706;23.306;2023-04-24T08:50:20;94768.63;;;17.42;45.39
43934;BME280;59081;42.706;23.306;2023-04-24T08:52:47;94732.19;;;17.46;45.18
43934;BME280;59081;42.706;23.306;2023-04-24T08:55:14;94753.25;;;17.78;44.30
43934;BME280;59081;42.706;23.306;2023-04-24T08:57:42;94677.97;;;17.10;44.68
43934;BME280;59081;42.706;23.306;2023-04-24T09:00:10;94731.41;;;17.71;43.88
43934;BME280;59081;42.706;23.306;2023-04-24T09:02:36;94748.91;;;18.08;44.02
43934;BME280;59081;42.706;23.306;2023-04-24T09:05:01;94727.59;;;18.05;43.83
43934;BME280;59081;42.706;23.306;2023-04-24T09:07:30;94839.31;;;19.19;43.64
43934;BME280;59081;42.706;23.306;2023-04-24T09:10:02;94709.59;;;18.43;44.06
43934;BME280;59081;42.706;23.306;2023-04-24T09:12:27;94809.63;;;19.27;43.15
43934;BME280;59081;42.706;23.306;2023-04-24T09:14:54;94717.94;;;18.97;42.11
43934;BME280;59081;42.706;23.306;2023-04-24T09:17:20;94727.81;;;18.93;42.40
43934;BME280;59081;42.706;23.306;2023-04-24T09:19:48;94710.97;;;18.65;42.70
43934;BME280;59081;42.706;23.306;2023-04-24T09:22:13;94712.59;;;18.34;43.77
43934;BME280;59081;42.706;23.306;2023-04-24T09:24:40;94701.00;;;18.47;43.06
43934;BME280;59081;42.706;23.306;2023-04-24T09:27:06;94712.88;;;19.01;42.14
43934;BME280;59081;42.706;23.306;2023-04-24T09:29:32;94750.78;;;19.47;42.40
43934;BME280;59081;42.706;23.306;2023-04-24T09:31:58;94743.47;;;19.66;41.52
43934;BME280;59081;42.706;23.306;2023-04-24T09:34:26;94780.53;;;20.45;40.45
43934;BME280;59081;42.706;23.306;2023-04-24T09:36:52;94693.88;;;20.17;38.92
43934;BME280;59081;42.706;23.306;2023-04-24T09:39:18;94770.50;;;20.94;39.41
43934;BME280;59081;42.706;23.306;2023-04-24T09:41:50;94792.84;;;21.05;39.81
43934;BME280;59081;42.706;23.306;2023-04-24T09:44:17;94782.91;;;21.10;38.92
43934;BME280;59081;42.706;23.306;2023-04-24T09:46:49;94752.81;;;20.53;38.49
43934;BME280;59081;42.706;23.306;2023-04-24T09:49:16;94799.06;;;20.70;38.36
43934;BME280;59081;42.706;23.306;2023-04-24T09:51:45;94745.59;;;18.95;41.19
43934;BME280;59081;42.706;23.306;2023-04-24T09:54:14;94728.16;;;18.52;40.88
43934;BME280;59081;42.706;23.306;2023-04-24T09:56:45;94741.72;;;18.82;40.41
43934;BME280;59081;42.706;23.306;2023-04-24T09:59:15;94749.06;;;18.79;40.47
43934;BME280;59081;42.706;23.306;2023-04-24T10:01:41;94735.00;;;19.22;39.17
43934;BME280;59081;42.706;23.306;2023-04-24T10:04:16;94732.28;;;19.77;38.29
43934;BME280;59081;42.706;23.306;2023-04-24T10:06:43;94695.94;;;20.00;38.36
43934;BME280;59081;42.706;23.306;2023-04-24T10:09:08;94678.31;;;20.33;37.12
43934;BME280;59081;42.706;23.306;2023-04-24T10:11:37;94659.66;;;20.63;37.07
43934;BME280;59081;42.706;23.306;2023-04-24T10:14:03;94752.06;;;21.62;35.59
43934;BME280;59081;42.706;23.306;2023-04-24T10:16:29;94716.59;;;21.70;35.71
43934;BME280;59081;42.706;23.306;2023-04-24T10:18:59;94698.31;;;21.94;34.03
43934;BME280;59081;42.706;23.306;2023-04-24T10:21:24;94654.84;;;21.10;34.52
43934;BME280;59081;42.706;23.306;2023-04-24T10:23:53;94708.16;;;20.94;35.98
43934;BME280;59081;42.706;23.306;2023-04-24T10:26:19;94648.44;;;21.21;35.73
43934;BME280;59081;42.706;23.306;2023-04-24T10:28:46;94701.50;;;22.09;35.26
43934;BME280;59081;42.706;23.306;2023-04-24T10:31:13;94725.13;;;22.68;34.39
43934;BME280;59081;42.706;23.306;2023-04-24T10:33:43;94676.84;;;22.69;34.53
43934;BME280;59081;42.706;23.306;2023-04-24T10:36:10;94662.22;;;22.76;32.87
43934;BME280;59081;42.706;23.306;2023-04-24T10:38:38;94686.97;;;22.10;33.87
43934;BME280;59081;42.706;23.306;2023-04-24T10:41:10;94636.84;;;21.66;34.25
43934;BME280;59081;42.706;23.306;2023-04-24T10:43:41;94639.09;;;21.43;34.40
43934;BME280;59081;42.706;23.306;2023-04-24T10:46:08;94700.03;;;21.31;35.40
43934;BME280;59081;42.706;23.306;2023-04-24T10:48:35;94721.81;;;21.03;35.52
43934;BME280;59081;42.706;23.306;2023-04-24T10:51:01;94650.31;;;20.44;36.84
43934;BME280;59081;42.706;23.306;2023-04-24T10:53:28;94659.66;;;20.69;35.91
43934;BME280;59081;42.706;23.306;2023-04-24T10:56:08;94636.38;;;20.33;37.15
43934;BME280;59081;42.706;23.306;2023-04-24T11:01:05;94651.38;;;20.35;37.30
43934;BME280;59081;42.706;23.306;2023-04-24T11:03:33;94628.13;;;19.83;37.87
43934;BME280;59081;42.706;23.306;2023-04-24T11:06:00;94710.66;;;20.23;38.04
43934;BME280;59081;42.706;23.306;2023-04-24T11:08:32;94656.31;;;19.79;38.15
43934;BME280;59081;42.706;23.306;2023-04-24T11:11:00;94697.50;;;19.67;38.30
43934;BME280;59081;42.706;23.306;2023-04-24T11:13:32;94640.03;;;19.05;38.83
43934;BME280;59081;42.706;23.306;2023-04-24T11:19:08;94639.47;;;18.73;39.45
43934;BME280;59081;42.706;23.306;2023-04-24T11:29:43;94627.75;;;15.51;61.43
43934;BME280;59081;42.706;23.306;2023-04-24T11:32:29;94738.09;;;16.20;62.25
43934;BME280;59081;42.706;23.306;2023-04-24T11:35:00;94620.94;;;15.87;62.78
43934;BME280;59081;42.706;23.306;2023-04-24T11:37:39;94735.47;;;16.72;65.06
43934;BME280;59081;42.706;23.306;2023-04-24T11:40:06;94610.59;;;15.87;66.33
43934;BME280;59081;42.706;23.306;2023-04-24T11:42:36;94721.00;;;16.88;67.54
43934;BME280;59081;42.706;23.306;2023-04-24T11:45:08;94629.41;;;16.59;63.74
43934;BME280;59081;42.706;23.306;2023-04-24T11:47:33;94666.38;;;17.17;60.66
43934;BME280;59081;42.706;23.306;2023-04-24T11:50:00;94662.47;;;17.34;56.58
43934;BME280;59081;42.706;23.306;2023-04-24T11:52:26;94628.47;;;17.19;52.38
43934;BME280;59081;42.706;23.306;2023-04-24T11:54:52;94660.09;;;17.53;56.58
43934;BME280;59081;42.706;23.306;2023-04-24T11:57:25;94665.94;;;17.87;51.35
43934;BME280;59081;42.706;23.306;2023-04-24T11:59:53;94699.81;;;18.17;52.29
43934;BME280;59081;42.706;23.306;2023-04-24T12:02:25;94678.53;;;18.14;51.69
43934;BME280;59081;42.706;23.306;2023-04-24T12:04:53;94684.59;;;18.12;49.26
43934;BME280;59081;42.706;23.306;2023-04-24T12:07:19;94604.19;;;17.57;47.83
43934;BME280;59081;42.706;23.306;2023-04-24T12:09:47;94618.03;;;17.77;48.94
43934;BME280;59081;42.706;23.306;2023-04-24T12:12:15;94685.13;;;18.70;48.10
43934;BME280;59081;42.706;23.306;2023-04-24T12:14:48;94609.38;;;18.23;45.88
43934;BME280;59081;42.706;23.306;2023-04-24T12:17:15;94626.22;;;18.57;47.95
43934;BME280;59081;42.706;23.306;2023-04-24T12:19:48;94694.41;;;18.56;46.28
43934;BME280;59081;42.706;23.306;2023-04-24T12:22:13;94627.19;;;17.83;45.65
43934;BME280;59081;42.706;23.306;2023-04-24T12:24:56;94630.38;;;17.70;46.58
43934;BME280;59081;42.706;23.306;2023-04-24T12:27:22;94545.94;;;17.53;46.29
43934;BME280;59081;42.706;23.306;2023-04-24T12:29:56;94552.50;;;17.93;44.85
43934;BME280;59081;42.706;23.306;2023-04-24T12:32:22;94509.84;;;17.64;46.16
43934;BME280;59081;42.706;23.306;2023-04-24T12:34:49;94561.44;;;18.19;44.83
43934;BME280;59081;42.706;23.306;2023-04-24T12:37:15;94557.97;;;18.41;45.18
43934;BME280;59081;42.706;23.306;2023-04-24T12:40:04;94516.19;;;18.58;44.38
43934;BME280;59081;42.706;23.306;2023-04-24T12:42:34;94553.75;;;18.73;42.94
43934;BME280;59081;42.706;23.306;2023-04-24T12:45:03;94588.50;;;18.78;42.75
43934;BME280;59081;42.706;23.306;2023-04-24T12:47:29;94567.72;;;18.68;43.33
43934;BME280;59081;42.706;23.306;2023-04-24T12:49:55;94527.84;;;18.56;42.60
43934;BME280;59081;42.706;23.306;2023-04-24T12:52:23;94586.50;;;18.95;43.05
43934;BME280;59081;42.706;23.306;2023-04-24T12:55:00;94568.75;;;19.09;43.80
43934;BME280;59081;42.706;23.306;2023-04-24T12:57:27;94541.34;;;19.08;43.78
43934;BME280;59081;42.706;23.306;2023-04-24T12:59:57;94525.84;;;19.07;42.67
43934;BME280;59081;42.706;23.306;2023-04-24T13:02:25;94425.38;;;18.23;42.42
43934;BME280;59081;42.706;23.306;2023-04-24T13:04:52;94519.25;;;19.16;41.54